Time;durP1;ratioP1;P1;durP2;ratioP2;P2;SDS_P1;SDS_P2;PMS_P1;PMS_P2;Temp;Humidity;BMP_temperature;BMP_pressure;BME280_temperature;BME280_humidity;BME280_pressure;Samples;Min_cycle;Max_cycle;Signal;HPM_P1;HPM_P2
2021/12/01 00:00:02;;;;;;;11.93;6.88;;;;;;;;;;5092899;28;20460;-72
2021/12/01 00:02:28;;;;;;;12.10;5.40;;;;;;;;;;5095834;28;20043;-72
2021/12/01 00:04:54;;;;;;;14.43;8.43;;;;;;;;;;5095481;28;20020;-71
2021/12/01 00:07:20;;;;;;;19.90;10.45;;;;;;;;;;5095658;28;20466;-72
2021/12/01 00:09:47;;;;;;;29.15;13.02;;;;;;;;;;5095305;28;20016;-71
2021/12/01 00:12:13;;;;;;;30.15;15.35;;;;;;;;;;5095635;28;20031;-72
2021/12/01 00:14:39;;;;;;;34.83;16.92;;;;;;;;;;5092894;28;20417;-72
2021/12/01 00:17:10;;;;;;;38.22;19.05;;;;;;;;;;5095171;28;20171;-72
2021/12/01 00:19:37;;;;;;;33.50;17.70;;;;;;;;;;5095405;28;20062;-72
2021/12/01 00:22:03;;;;;;;31.17;16.40;;;;;;;;;;5095285;28;20151;-72
2021/12/01 00:24:29;;;;;;;32.05;15.73;;;;;;;;;;5094992;28;20024;-73
2021/12/01 00:26:56;;;;;;;22.05;11.52;;;;;;;;;;5095111;28;20054;-73
2021/12/01 00:29:22;;;;;;;24.88;11.10;;;;;;;;;;5094026;28;20391;-73
2021/12/01 00:31:48;;;;;;;19.98;10.43;;;;;;;;;;5092291;28;20032;-73
2021/12/01 00:34:16;;;;;;;18.08;9.77;;;;;;;;;;5095125;28;20024;-73
2021/12/01 00:36:42;;;;;;;16.38;8.13;;;;;;;;;;5095153;28;20093;-73
2021/12/01 00:39:08;;;;;;;7.05;4.22;;;;;;;;;;5094794;28;20024;-71
2021/12/01 00:41:35;;;;;;;9.10;4.13;;;;;;;;;;5095072;28;20532;-73
2021/12/01 00:44:01;;;;;;;10.80;5.25;;;;;;;;;;5094855;28;20055;-72
2021/12/01 00:49:03;;;;;;;13.65;7.60;;;;;;;;;;5094892;28;20024;-71
2021/12/01 00:51:29;;;;;;;16.55;7.82;;;;;;;;;;5094950;28;20357;-71
2021/12/01 00:53:55;;;;;;;15.65;7.57;;;;;;;;;;5094319;28;20077;-71
2021/12/01 00:56:21;;;;;;;17.25;7.88;;;;;;;;;;5094717;28;20361;-71
2021/12/01 00:58:48;;;;;;;15.02;7.40;;;;;;;;;;5094646;28;20035;-71
2021/12/01 01:01:14;;;;;;;15.57;7.55;;;;;;;;;;5090093;28;20069;-71
2021/12/01 01:03:40;;;;;;;15.20;6.85;;;;;;;;;;5093151;28;20043;-71
2021/12/01 01:06:07;;;;;;;13.52;6.20;;;;;;;;;;5093474;28;20545;-71
2021/12/01 01:08:33;;;;;;;14.32;6.90;;;;;;;;;;5093114;28;20068;-71
2021/12/01 01:16:23;;;;;;;11.88;6.10;;;;;;;;;;5094609;28;20058;-71
2021/12/01 01:18:54;;;;;;;11.98;5.18;;;;;;;;;;5091534;28;20430;-71
2021/12/01 01:21:21;;;;;;;15.73;6.53;;;;;;;;;;5088269;28;20016;-69
2021/12/01 01:23:47;;;;;;;12.68;5.93;;;;;;;;;;5094211;28;20036;-71
2021/12/01 01:26:14;;;;;;;10.80;5.18;;;;;;;;;;5094444;28;20020;-71
2021/12/01 01:28:41;;;;;;;8.07;4.32;;;;;;;;;;5093755;28;20059;-71
2021/12/01 01:31:07;;;;;;;9.40;3.88;;;;;;;;;;5093941;28;20027;-71
2021/12/01 01:33:33;;;;;;;11.52;4.75;;;;;;;;;;5090883;28;20105;-71
2021/12/01 01:36:00;;;;;;;10.00;4.32;;;;;;;;;;5093563;28;20035;-71
2021/12/01 01:38:28;;;;;;;9.20;4.90;;;;;;;;;;5093738;28;20126;-71
2021/12/01 01:40:55;;;;;;;8.25;4.75;;;;;;;;;;5093883;28;20422;-71
2021/12/01 01:43:21;;;;;;;8.15;4.35;;;;;;;;;;5093445;28;20365;-71
2021/12/01 01:45:52;;;;;;;10.95;5.25;;;;;;;;;;5093662;28;20016;-71
2021/12/01 01:48:22;;;;;;;10.75;5.35;;;;;;;;;;5090979;28;20028;-71
2021/12/01 01:50:48;;;;;;;11.07;5.25;;;;;;;;;;5092813;28;20028;-71
2021/12/01 01:53:26;;;;;;;17.58;8.07;;;;;;;;;;5093711;28;20024;-71
2021/12/01 01:55:54;;;;;;;13.20;6.80;;;;;;;;;;5093423;28;20069;-71
2021/12/01 01:58:21;;;;;;;19.50;9.05;;;;;;;;;;5093673;28;20020;-71
2021/12/01 02:00:51;;;;;;;29.35;12.82;;;;;;;;;;5093666;28;20016;-71
2021/12/01 02:03:18;;;;;;;24.05;11.90;;;;;;;;;;5093391;28;20480;-71
2021/12/01 02:05:45;;;;;;;11.98;6.90;;;;;;;;;;5093696;28;20024;-71
2021/12/01 02:08:28;;;;;;;11.20;5.30;;;;;;;;;;5093834;28;20024;-71
2021/12/01 02:10:54;;;;;;;9.18;4.43;;;;;;;;;;5093501;28;20023;-71
2021/12/01 02:13:21;;;;;;;12.32;4.43;;;;;;;;;;5093560;28;20084;-71
2021/12/01 02:15:49;;;;;;;7.45;4.15;;;;;;;;;;5092158;28;20016;-71
2021/12/01 02:18:15;;;;;;;11.95;4.97;;;;;;;;;;5092927;28;20507;-71
2021/12/01 02:20:42;;;;;;;7.90;4.25;;;;;;;;;;5093399;28;20048;-71
2021/12/01 02:23:08;;;;;;;9.32;5.55;;;;;;;;;;5091729;28;20515;-71
2021/12/01 02:25:34;;;;;;;11.88;5.20;;;;;;;;;;5093059;28;20051;-71
2021/12/01 02:28:00;;;;;;;9.07;4.35;;;;;;;;;;5093336;28;20066;-71
2021/12/01 02:30:26;;;;;;;6.47;3.20;;;;;;;;;;5093562;28;20016;-71
2021/12/01 02:32:53;;;;;;;4.93;2.67;;;;;;;;;;5092996;28;20484;-71
2021/12/01 02:35:19;;;;;;;7.65;3.72;;;;;;;;;;5093341;28;20027;-72
2021/12/01 02:37:45;;;;;;;8.43;3.97;;;;;;;;;;5092962;28;20032;-71
2021/12/01 02:40:11;;;;;;;7.38;3.65;;;;;;;;;;5093196;28;20024;-71
2021/12/01 02:42:38;;;;;;;13.25;6.93;;;;;;;;;;5093162;28;20396;-71
2021/12/01 02:45:04;;;;;;;17.30;6.65;;;;;;;;;;5092875;28;20020;-72
2021/12/01 02:47:30;;;;;;;10.30;5.60;;;;;;;;;;5093147;28;20028;-72
2021/12/01 02:49:57;;;;;;;10.15;4.75;;;;;;;;;;5091820;28;20103;-72
2021/12/01 02:52:23;;;;;;;8.73;3.75;;;;;;;;;;5091381;28;20021;-72
2021/12/01 02:54:49;;;;;;;9.93;3.55;;;;;;;;;;5093265;28;20034;-72
2021/12/01 02:57:16;;;;;;;8.90;4.68;;;;;;;;;;5093365;28;20484;-72
2021/12/01 02:59:42;;;;;;;7.63;4.30;;;;;;;;;;5092968;28;20353;-72
2021/12/01 03:02:09;;;;;;;10.40;4.53;;;;;;;;;;5092987;28;20051;-72
2021/12/01 03:04:36;;;;;;;13.60;8.45;;;;;;;;;;5093068;28;20281;-71
2021/12/01 03:07:03;;;;;;;11.02;6.43;;;;;;;;;;5092876;28;20024;-71
2021/12/01 03:09:30;;;;;;;11.60;5.85;;;;;;;;;;5092982;28;20032;-72
2021/12/01 03:11:56;;;;;;;10.98;6.07;;;;;;;;;;5092962;28;20077;-71
2021/12/01 03:14:23;;;;;;;11.10;5.57;;;;;;;;;;5092727;28;20028;-71
2021/12/01 03:16:50;;;;;;;11.18;5.85;;;;;;;;;;5092967;28;20024;-71
2021/12/01 03:19:16;;;;;;;7.55;3.85;;;;;;;;;;5093014;28;20028;-71
2021/12/01 03:21:43;;;;;;;3.58;2.60;;;;;;;;;;5092377;28;20066;-70
2021/12/01 03:24:10;;;;;;;7.40;3.28;;;;;;;;;;5093064;28;20502;-71
2021/12/01 03:26:37;;;;;;;7.90;3.17;;;;;;;;;;5092882;28;20031;-71
2021/12/01 03:29:05;;;;;;;4.45;2.88;;;;;;;;;;5092492;28;20082;-71
2021/12/01 03:31:31;;;;;;;5.57;3.00;;;;;;;;;;5096393;28;20039;-71
2021/12/01 03:33:57;;;;;;;9.10;3.22;;;;;;;;;;5096140;28;20035;-71
2021/12/01 03:36:23;;;;;;;5.95;3.33;;;;;;;;;;5096334;28;20069;-71
2021/12/01 03:38:50;;;;;;;11.85;6.32;;;;;;;;;;5096303;28;20099;-71
2021/12/01 03:41:16;;;;;;;20.58;6.75;;;;;;;;;;5095915;28;20107;-71
2021/12/01 03:43:42;;;;;;;13.90;6.30;;;;;;;;;;5096248;28;20032;-71
2021/12/01 03:46:09;;;;;;;12.80;5.78;;;;;;;;;;5096282;28;20472;-71
2021/12/01 03:48:35;;;;;;;14.25;6.03;;;;;;;;;;5095877;28;20035;-71
2021/12/01 03:51:01;;;;;;;12.02;5.25;;;;;;;;;;5096220;28;20020;-71
2021/12/01 03:53:28;;;;;;;8.45;4.55;;;;;;;;;;5096400;28;20101;-71
2021/12/01 03:55:54;;;;;;;9.50;4.18;;;;;;;;;;5095657;28;20020;-71
2021/12/01 03:58:20;;;;;;;8.52;4.10;;;;;;;;;;5096152;28;20020;-71
2021/12/01 04:00:48;;;;;;;8.30;3.05;;;;;;;;;;5095864;28;20073;-71
2021/12/01 04:03:14;;;;;;;10.55;4.13;;;;;;;;;;5095430;28;20064;-71
2021/12/01 04:05:40;;;;;;;12.60;5.43;;;;;;;;;;5094511;28;20111;-71
2021/12/01 04:08:07;;;;;;;10.32;6.05;;;;;;;;;;5096022;28;20035;-71
2021/12/01 04:10:33;;;;;;;12.02;6.15;;;;;;;;;;5095437;28;20020;-71
2021/12/01 04:12:59;;;;;;;12.30;5.80;;;;;;;;;;5095834;28;20028;-71
2021/12/01 04:15:26;;;;;;;15.65;7.45;;;;;;;;;;5095863;28;20039;-71
2021/12/01 04:17:52;;;;;;;16.60;8.38;;;;;;;;;;5095302;28;20091;-71
2021/12/01 04:20:19;;;;;;;13.38;8.00;;;;;;;;;;5095532;28;20024;-71
2021/12/01 04:22:46;;;;;;;14.32;6.95;;;;;;;;;;5093965;28;20518;-71
2021/12/01 04:25:13;;;;;;;15.93;7.90;;;;;;;;;;5095145;28;20028;-71
2021/12/01 04:27:39;;;;;;;14.77;6.78;;;;;;;;;;5095415;28;20420;-71
2021/12/01 04:30:08;;;;;;;12.82;6.68;;;;;;;;;;5095414;28;20078;-71
2021/12/01 04:32:34;;;;;;;11.05;5.65;;;;;;;;;;5095246;28;20020;-71
2021/12/01 04:35:01;;;;;;;11.80;6.68;;;;;;;;;;5095281;28;20490;-71
2021/12/01 04:37:27;;;;;;;9.38;5.00;;;;;;;;;;5094834;28;20353;-72
2021/12/01 04:39:54;;;;;;;11.88;5.90;;;;;;;;;;5095104;28;20054;-71
2021/12/01 04:42:20;;;;;;;9.10;4.72;;;;;;;;;;5095074;28;20419;-71
2021/12/01 04:44:46;;;;;;;9.85;5.28;;;;;;;;;;5093407;28;20081;-71
2021/12/01 04:47:14;;;;;;;9.10;5.32;;;;;;;;;;5094989;28;20020;-73
2021/12/01 04:49:41;;;;;;;10.05;5.00;;;;;;;;;;5093638;28;20031;-73
2021/12/01 04:52:08;;;;;;;7.95;4.95;;;;;;;;;;5094764;28;20020;-71
2021/12/01 04:54:35;;;;;;;12.20;5.90;;;;;;;;;;5094864;28;20468;-71
2021/12/01 04:57:02;;;;;;;51.78;20.52;;;;;;;;;;5095074;28;20024;-71
2021/12/01 04:59:28;;;;;;;39.38;19.85;;;;;;;;;;5094408;28;20032;-71
2021/12/01 05:01:56;;;;;;;37.40;19.42;;;;;;;;;;5094618;28;20055;-71
2021/12/01 05:04:22;;;;;;;42.47;21.98;;;;;;;;;;5094659;28;20035;-72
2021/12/01 05:06:49;;;;;;;119.43;49.90;;;;;;;;;;5094331;28;20020;-74
2021/12/01 05:09:16;;;;;;;108.93;48.90;;;;;;;;;;5094669;28;20028;-74
2021/12/01 05:11:42;;;;;;;65.85;31.95;;;;;;;;;;5094694;28;20033;-74
2021/12/01 05:14:08;;;;;;;38.22;22.35;;;;;;;;;;5092926;28;20355;-71
2021/12/01 05:16:36;;;;;;;49.42;26.90;;;;;;;;;;5094495;28;20024;-72
2021/12/01 05:19:05;;;;;;;36.03;18.70;;;;;;;;;;5094396;28;20024;-72
2021/12/01 05:21:32;;;;;;;28.83;16.23;;;;;;;;;;5094060;28;20118;-72
2021/12/01 05:23:58;;;;;;;24.58;14.63;;;;;;;;;;5094681;28;20055;-73
2021/12/01 05:26:24;;;;;;;18.20;11.02;;;;;;;;;;5093982;28;20533;-70
2021/12/01 05:28:50;;;;;;;28.80;14.95;;;;;;;;;;5094139;28;20035;-70
2021/12/01 05:31:17;;;;;;;23.95;11.68;;;;;;;;;;5094319;28;20024;-70
2021/12/01 05:33:43;;;;;;;19.85;7.53;;;;;;;;;;5092456;28;20437;-70
2021/12/01 05:36:10;;;;;;;13.57;6.43;;;;;;;;;;5094252;28;20027;-73
2021/12/01 05:38:36;;;;;;;14.38;6.32;;;;;;;;;;5094192;28;20024;-76
2021/12/01 05:41:03;;;;;;;14.23;6.22;;;;;;;;;;5093689;28;20012;-73
2021/12/01 05:43:29;;;;;;;9.10;5.65;;;;;;;;;;5092790;28;20115;-75
2021/12/01 05:45:56;;;;;;;15.88;7.75;;;;;;;;;;5094038;28;20020;-72
2021/12/01 05:48:22;;;;;;;22.80;11.52;;;;;;;;;;5093614;28;20376;-73
2021/12/01 05:50:48;;;;;;;23.33;12.50;;;;;;;;;;5094283;28;20095;-73
2021/12/01 05:53:14;;;;;;;20.33;10.82;;;;;;;;;;5093344;28;20548;-74
2021/12/01 05:55:41;;;;;;;19.75;11.38;;;;;;;;;;5093498;28;20024;-71
2021/12/01 05:58:07;;;;;;;30.40;16.30;;;;;;;;;;5094372;28;20028;-73
2021/12/01 06:00:34;;;;;;;40.40;21.65;;;;;;;;;;5093710;28;20027;-72
2021/12/01 06:03:00;;;;;;;33.53;18.80;;;;;;;;;;5093455;28;20487;-73
2021/12/01 06:05:27;;;;;;;37.05;23.80;;;;;;;;;;5093747;28;20028;-72
2021/12/01 06:07:53;;;;;;;42.17;23.67;;;;;;;;;;5091594;28;20046;-72
2021/12/01 06:10:20;;;;;;;61.35;30.35;;;;;;;;;;5091841;28;20103;-72
2021/12/01 06:12:46;;;;;;;37.58;20.20;;;;;;;;;;5092601;28;20076;-72
2021/12/01 06:15:15;;;;;;;43.60;21.48;;;;;;;;;;5093065;28;20024;-73
2021/12/01 06:17:43;;;;;;;36.80;19.20;;;;;;;;;;5090696;28;20109;-71
2021/12/01 06:20:10;;;;;;;36.85;21.40;;;;;;;;;;5092534;28;20027;-71
2021/12/01 06:22:38;;;;;;;37.60;20.20;;;;;;;;;;5092909;28;20052;-72
2021/12/01 06:25:05;;;;;;;31.45;18.60;;;;;;;;;;5093051;28;20023;-71
2021/12/01 06:27:31;;;;;;;24.35;14.38;;;;;;;;;;5091480;28;20035;-71
2021/12/01 06:29:57;;;;;;;26.80;12.77;;;;;;;;;;5092608;28;20020;-72
2021/12/01 06:32:23;;;;;;;19.75;12.70;;;;;;;;;;5093133;28;20433;-75
2021/12/01 06:34:50;;;;;;;20.80;14.85;;;;;;;;;;5091512;28;20056;-72
2021/12/01 06:37:17;;;;;;;44.55;21.75;;;;;;;;;;5091149;28;20028;-72
2021/12/01 06:39:44;;;;;;;53.03;28.02;;;;;;;;;;5092580;28;20054;-72
2021/12/01 06:42:10;;;;;;;68.47;32.90;;;;;;;;;;5091544;28;20031;-73
2021/12/01 06:44:36;;;;;;;55.17;28.00;;;;;;;;;;5092707;28;20063;-71
2021/12/01 06:47:03;;;;;;;49.22;28.40;;;;;;;;;;5092946;28;20024;-71
2021/12/01 06:49:29;;;;;;;47.60;27.20;;;;;;;;;;5092848;28;20025;-71
2021/12/01 06:51:56;;;;;;;49.53;27.45;;;;;;;;;;5092597;28;20046;-70
2021/12/01 06:54:22;;;;;;;52.05;25.02;;;;;;;;;;5093362;28;20028;-72
2021/12/01 06:56:49;;;;;;;57.15;33.50;;;;;;;;;;5093019;28;20024;-72
2021/12/01 06:59:15;;;;;;;54.30;27.20;;;;;;;;;;5091500;28;20028;-72
2021/12/01 07:01:42;;;;;;;47.60;27.60;;;;;;;;;;5093041;28;20031;-73
2021/12/01 07:04:08;;;;;;;45.97;24.42;;;;;;;;;;5088661;28;20479;-72
2021/12/01 07:06:34;;;;;;;47.47;29.95;;;;;;;;;;5096211;28;20024;-72
2021/12/01 07:09:01;;;;;;;63.80;32.50;;;;;;;;;;5095357;28;20112;-72
2021/12/01 07:11:39;;;;;;;57.30;31.80;;;;;;;;;;5095971;28;20016;-72
2021/12/01 07:14:05;;;;;;;62.08;33.20;;;;;;;;;;5093498;28;20035;-73
2021/12/01 07:16:32;;;;;;;54.90;29.08;;;;;;;;;;5095813;28;20418;-70
2021/12/01 07:18:59;;;;;;;51.95;28.33;;;;;;;;;;5092524;28;20123;-67
2021/12/01 07:21:25;;;;;;;41.15;24.90;;;;;;;;;;5089542;28;20058;-68
2021/12/01 07:23:51;;;;;;;28.73;16.33;;;;;;;;;;5089990;28;20040;-68
2021/12/01 07:26:18;;;;;;;23.90;13.23;;;;;;;;;;5095826;28;20495;-67
2021/12/01 07:28:44;;;;;;;36.28;17.83;;;;;;;;;;5094713;28;20051;-68
2021/12/01 07:31:10;;;;;;;24.77;13.93;;;;;;;;;;5115348;28;20019;-68
2021/12/01 07:33:37;;;;;;;21.75;11.32;;;;;;;;;;5112974;28;20028;-68
2021/12/01 07:36:04;;;;;;;21.27;12.18;;;;;;;;;;5112510;28;20028;-68
2021/12/01 07:38:31;;;;;;;20.58;12.27;;;;;;;;;;5101583;28;20069;-68
2021/12/01 07:40:57;;;;;;;21.80;11.93;;;;;;;;;;5092505;28;20028;-68
2021/12/01 07:43:23;;;;;;;32.55;17.50;;;;;;;;;;5091720;28;20073;-68
2021/12/01 07:45:49;;;;;;;30.90;16.73;;;;;;;;;;5092976;28;20031;-68
2021/12/01 07:48:16;;;;;;;19.35;11.30;;;;;;;;;;5094374;28;20177;-68
2021/12/01 07:50:42;;;;;;;22.92;13.95;;;;;;;;;;5094820;28;20364;-68
2021/12/01 07:53:09;;;;;;;20.33;10.98;;;;;;;;;;5095100;28;20024;-68
2021/12/01 07:55:35;;;;;;;23.25;13.52;;;;;;;;;;5093704;28;20237;-68
2021/12/01 07:58:01;;;;;;;27.05;15.95;;;;;;;;;;5093966;28;20024;-68
2021/12/01 08:00:28;;;;;;;29.42;16.50;;;;;;;;;;5095322;28;20020;-68
2021/12/01 08:02:54;;;;;;;100.75;51.70;;;;;;;;;;5092183;28;20115;-69
2021/12/01 08:05:21;;;;;;;58.40;26.92;;;;;;;;;;5092047;28;20062;-69
2021/12/01 08:07:49;;;;;;;32.85;21.65;;;;;;;;;;5094565;28;20028;-68
2021/12/01 08:10:15;;;;;;;34.92;20.17;;;;;;;;;;5093861;28;20053;-67
2021/12/01 08:12:42;;;;;;;29.75;17.55;;;;;;;;;;5094833;28;20433;-68
2021/12/01 08:15:08;;;;;;;28.05;16.77;;;;;;;;;;5091608;28;20070;-67
2021/12/01 08:17:38;;;;;;;57.60;32.88;;;;;;;;;;5087976;28;20129;-67
2021/12/01 08:20:04;;;;;;;50.38;28.05;;;;;;;;;;5091649;28;20024;-68
2021/12/01 08:22:31;;;;;;;65.65;38.35;;;;;;;;;;5093795;28;20047;-67
2021/12/01 08:24:58;;;;;;;65.30;41.20;;;;;;;;;;5093559;28;20043;-68
2021/12/01 08:27:25;;;;;;;95.10;59.75;;;;;;;;;;5092909;28;20024;-67
2021/12/01 08:29:51;;;;;;;29.73;19.40;;;;;;;;;;5094055;28;20025;-68
2021/12/01 08:32:17;;;;;;;43.05;24.92;;;;;;;;;;5093647;28;20024;-67
2021/12/01 08:34:49;;;;;;;27.15;16.88;;;;;;;;;;5094260;28;20141;-68
2021/12/01 08:37:18;;;;;;;28.00;17.55;;;;;;;;;;5093355;28;20407;-70
2021/12/01 08:39:44;;;;;;;21.58;13.93;;;;;;;;;;5092097;28;20035;-69
2021/12/01 08:42:10;;;;;;;29.40;17.02;;;;;;;;;;5093834;28;20051;-70
2021/12/01 08:44:37;;;;;;;36.38;24.38;;;;;;;;;;5093498;28;20028;-68
2021/12/01 08:47:04;;;;;;;81.32;42.58;;;;;;;;;;5092909;28;20030;-69
2021/12/01 08:49:30;;;;;;;41.22;26.52;;;;;;;;;;5093051;28;20030;-68
2021/12/01 08:51:56;;;;;;;34.35;22.85;;;;;;;;;;5093804;28;20495;-68
2021/12/01 08:54:22;;;;;;;34.65;23.15;;;;;;;;;;5093435;28;20056;-68
2021/12/01 08:56:48;;;;;;;38.30;23.83;;;;;;;;;;5093190;28;20071;-67
2021/12/01 08:59:15;;;;;;;41.72;24.73;;;;;;;;;;5093396;28;20471;-67
2021/12/01 09:01:41;;;;;;;46.08;29.90;;;;;;;;;;5093548;28;20012;-68
2021/12/01 09:04:08;;;;;;;47.13;26.67;;;;;;;;;;5092294;28;20394;-69
2021/12/01 09:06:34;;;;;;;40.85;26.90;;;;;;;;;;5093645;28;20016;-68
2021/12/01 09:09:00;;;;;;;43.85;28.63;;;;;;;;;;5093563;28;20093;-68
2021/12/01 09:11:27;;;;;;;45.17;29.42;;;;;;;;;;5093358;28;20044;-69
2021/12/01 09:13:53;;;;;;;80.50;48.28;;;;;;;;;;5093236;28;20406;-70
2021/12/01 09:16:21;;;;;;;43.88;30.00;;;;;;;;;;5092377;28;20024;-69
2021/12/01 09:18:47;;;;;;;36.28;25.75;;;;;;;;;;5075457;28;20138;-69
2021/12/01 09:21:13;;;;;;;32.13;20.48;;;;;;;;;;5092485;28;20028;-69
2021/12/01 09:23:39;;;;;;;63.38;38.05;;;;;;;;;;5092769;28;20511;-69
2021/12/01 09:26:06;;;;;;;47.70;29.77;;;;;;;;;;5091824;28;20039;-69
2021/12/01 09:28:32;;;;;;;30.02;21.73;;;;;;;;;;5090499;28;20551;-69
2021/12/01 09:30:58;;;;;;;23.50;15.15;;;;;;;;;;5090689;28;20464;-69
2021/12/01 09:33:25;;;;;;;25.83;15.85;;;;;;;;;;5092578;28;20064;-69
2021/12/01 09:35:51;;;;;;;18.80;12.35;;;;;;;;;;5091854;28;20020;-70
2021/12/01 09:38:18;;;;;;;16.73;9.27;;;;;;;;;;5092950;28;20020;-70
2021/12/01 09:40:50;;;;;;;10.77;6.30;;;;;;;;;;5090692;28;20020;-70
2021/12/01 09:43:17;;;;;;;11.05;6.15;;;;;;;;;;5093261;28;20088;-70
2021/12/01 09:45:44;;;;;;;14.98;7.57;;;;;;;;;;5074966;28;20035;-70
2021/12/01 09:48:10;;;;;;;42.63;20.25;;;;;;;;;;5092451;28;20024;-70
2021/12/01 09:50:36;;;;;;;13.18;6.93;;;;;;;;;;5091937;28;20038;-69
2021/12/01 09:53:03;;;;;;;14.38;9.00;;;;;;;;;;5090021;28;20164;-70
2021/12/01 09:55:29;;;;;;;10.82;7.32;;;;;;;;;;5090648;28;20031;-69
2021/12/01 09:57:57;;;;;;;13.23;6.45;;;;;;;;;;5091473;28;20529;-69
2021/12/01 10:00:23;;;;;;;12.43;7.57;;;;;;;;;;5090594;28;20032;-69
2021/12/01 10:02:49;;;;;;;10.60;6.45;;;;;;;;;;5091971;28;20033;-69
2021/12/01 10:05:36;;;;;;;11.90;5.38;;;;;;;;;;5078300;28;20397;-69
2021/12/01 10:08:02;;;;;;;13.77;7.50;;;;;;;;;;5055598;28;20094;-69
2021/12/01 10:10:28;;;;;;;26.05;13.43;;;;;;;;;;5081848;28;20042;-70
2021/12/01 10:12:54;;;;;;;26.13;13.30;;;;;;;;;;5091499;28;20028;-70
2021/12/01 10:16:02;;;;;;;20.38;10.70;;;;;;;;;;5061859;27;21270;-69
2021/12/01 10:18:30;;;;;;;13.60;8.13;;;;;;;;;;5066870;28;20032;-69
2021/12/01 10:27:13;;;;;;;19.90;11.27;;;;;;;;;;5149122;27;20454;-73
2021/12/01 10:29:43;;;;;;;35.10;20.67;;;;;;;;;;5146611;27;20110;-73
2021/12/01 10:33:33;;;;;;;19.90;8.95;;;;;;;;;;5059539;28;20477;-72
2021/12/01 10:36:01;;;;;;;21.25;12.25;;;;;;;;;;5063875;28;20033;-72
2021/12/01 10:39:45;;;;;;;19.33;9.48;;;;;;;;;;5106550;27;20450;-72
2021/12/01 10:42:14;;;;;;;17.13;10.38;;;;;;;;;;5105979;28;20391;-72
2021/12/01 10:46:24;;;;;;;19.20;10.23;;;;;;;;;;5107601;27;20451;-73
2021/12/01 10:55:49;;;;;;;16.70;10.63;;;;;;;;;;5069997;28;20465;-73
2021/12/01 10:58:16;;;;;;;17.05;10.25;;;;;;;;;;5068446;28;20029;-73
2021/12/01 11:00:43;;;;;;;16.08;10.38;;;;;;;;;;5068124;28;20024;-73
2021/12/01 11:03:14;;;;;;;14.02;9.38;;;;;;;;;;5069319;28;20071;-73
2021/12/01 11:05:41;;;;;;;15.45;10.35;;;;;;;;;;5068389;28;20048;-73
2021/12/01 11:08:21;;;;;;;17.27;11.07;;;;;;;;;;5069629;28;20415;-73
2021/12/01 11:11:11;;;;;;;15.85;9.35;;;;;;;;;;5110015;27;20469;-73
2021/12/01 11:13:39;;;;;;;25.65;15.45;;;;;;;;;;5108443;28;20028;-73
2021/12/01 11:16:06;;;;;;;24.60;13.23;;;;;;;;;;5109609;28;20023;-72
2021/12/01 11:18:34;;;;;;;19.55;11.60;;;;;;;;;;5107572;28;20092;-71
2021/12/01 11:21:03;;;;;;;14.75;9.98;;;;;;;;;;5104435;28;20027;-72
2021/12/01 11:25:20;;;;;;;20.25;12.52;;;;;;;;;;5097859;27;1540251;-73
2021/12/01 11:29:40;;;;;;;16.13;8.27;;;;;;;;;;5107262;27;20446;-73
2021/12/01 11:32:06;;;;;;;15.60;9.35;;;;;;;;;;5087855;28;20032;-71
2021/12/01 11:35:23;;;;;;;15.35;8.43;;;;;;;;;;5066113;28;21133;-72
2021/12/01 11:37:56;;;;;;;12.23;7.18;;;;;;;;;;5067797;28;20326;-73
2021/12/01 11:40:31;;;;;;;39.65;19.90;;;;;;;;;;5067103;28;20012;-73
2021/12/01 11:45:46;;;;;;;17.85;10.75;;;;;;;;;;5108329;27;20381;-71
2021/12/01 11:49:27;;;;;;;15.88;8.55;;;;;;;;;;5067466;28;20895;-73
2021/12/01 11:51:59;;;;;;;12.30;6.82;;;;;;;;;;5068783;28;20504;-71
2021/12/01 11:54:27;;;;;;;11.93;7.28;;;;;;;;;;5068315;28;20028;-71
2021/12/01 11:57:42;;;;;;;10.80;5.50;;;;;;;;;;5107534;27;20381;-73
2021/12/01 12:00:09;;;;;;;9.65;6.20;;;;;;;;;;5109375;28;20031;-71
2021/12/01 12:02:36;;;;;;;9.05;5.25;;;;;;;;;;5108282;28;20024;-72
2021/12/01 12:05:27;;;;;;;10.15;5.07;;;;;;;;;;5109049;27;20392;-72
2021/12/01 12:07:53;;;;;;;9.43;4.97;;;;;;;;;;5108685;28;20077;-72
2021/12/01 12:10:21;;;;;;;22.83;14.82;;;;;;;;;;5109373;28;20020;-72
2021/12/01 12:14:46;;;;;;;13.45;7.20;;;;;;;;;;5109647;27;20462;-72
2021/12/01 12:17:21;;;;;;;14.10;7.97;;;;;;;;;;5101615;28;20037;-71
2021/12/01 12:19:51;;;;;;;13.20;7.28;;;;;;;;;;5109591;28;20487;-71
2021/12/01 12:23:01;;;;;;;18.45;11.02;;;;;;;;;;5109980;27;20443;-70
2021/12/01 12:27:42;;;;;;;9.65;5.57;;;;;;;;;;5109520;27;20778;-71
2021/12/01 12:30:08;;;;;;;;;;;;;;;;;;5108597;28;20035;-71
2021/12/01 12:33:15;;;;;;;13.00;7.57;;;;;;;;;;5109374;27;20450;-71
2021/12/01 12:35:45;;;;;;;9.90;5.82;;;;;;;;;;5109042;28;20028;-72
2021/12/01 12:38:11;;;;;;;12.68;7.72;;;;;;;;;;5095295;28;20056;-72
2021/12/01 12:40:38;;;;;;;13.07;7.10;;;;;;;;;;5083337;28;20024;-71
2021/12/01 12:43:08;;;;;;;13.48;6.93;;;;;;;;;;5088468;28;20018;-71
2021/12/01 12:46:19;;;;;;;11.52;6.90;;;;;;;;;;5103955;27;21201;-72
2021/12/01 12:48:48;;;;;;;11.13;6.45;;;;;;;;;;5105998;28;20028;-72
2021/12/01 12:54:49;;;;;;;12.85;7.60;;;;;;;;;;5108783;27;20546;-70
2021/12/01 12:59:23;;;;;;;12.95;8.20;;;;;;;;;;5110308;27;21090;-73
2021/12/01 13:01:55;;;;;;;14.68;8.10;;;;;;;;;;5109610;28;20107;-73
2021/12/01 13:05:02;;;;;;;19.50;11.50;;;;;;;;;;5109026;28;20034;-72
2021/12/01 13:08:28;;;;;;;17.38;10.25;;;;;;;;;;5109398;27;20396;-71
2021/12/01 13:13:34;;;;;;;18.90;12.40;;;;;;;;;;5110865;27;20799;-71
2021/12/01 13:17:57;;;;;;;13.05;8.73;;;;;;;;;;5110206;27;20450;-74
2021/12/01 13:20:33;;;;;;;14.20;8.50;;;;;;;;;;5110187;28;20097;-72
2021/12/01 13:25:02;;;;;;;16.65;11.40;;;;;;;;;;5108179;27;20446;-75
2021/12/01 13:28:11;;;;;;;16.13;11.05;;;;;;;;;;5109072;27;20952;-73
2021/12/01 13:30:53;;;;;;;28.13;13.15;;;;;;;;;;5109092;28;20035;-73
2021/12/01 13:34:34;;;;;;;36.95;20.08;;;;;;;;;;5128636;27;20368;-74
2021/12/01 13:37:24;;;;;;;50.45;28.08;;;;;;;;;;5108556;27;20819;-72
2021/12/01 13:39:52;;;;;;;21.27;12.80;;;;;;;;;;5108214;28;20391;-74
2021/12/01 13:42:23;;;;;;;19.67;11.70;;;;;;;;;;5109824;28;20099;-73
2021/12/01 13:46:02;;;;;;;16.33;8.98;;;;;;;;;;5068361;28;20477;-74
2021/12/01 13:48:29;;;;;;;30.75;23.00;;;;;;;;;;5069715;28;20502;-73
2021/12/01 13:51:09;;;;;;;31.67;21.65;;;;;;;;;;5067636;28;20431;-73
2021/12/01 13:53:35;;;;;;;30.55;16.98;;;;;;;;;;5067342;28;20443;-73
2021/12/01 13:56:07;;;;;;;22.55;13.50;;;;;;;;;;5068513;28;20484;-73
2021/12/01 13:58:33;;;;;;;21.73;14.20;;;;;;;;;;5067904;28;20029;-73
2021/12/01 14:01:03;;;;;;;21.02;10.63;;;;;;;;;;5067479;28;20031;-75
2021/12/01 14:03:30;;;;;;;17.80;10.27;;;;;;;;;;5068759;28;20366;-74
2021/12/01 14:08:05;;;;;;;25.55;14.98;;;;;;;;;;5110781;27;20939;-73
2021/12/01 14:13:03;;;;;;;29.52;17.15;;;;;;;;;;5111135;27;20396;-72
2021/12/01 14:15:31;;;;;;;29.60;17.23;;;;;;;;;;5110628;28;20054;-72
2021/12/01 14:19:54;;;;;;;128.18;65.10;;;;;;;;;;5071054;28;20399;-72
2021/12/01 14:23:27;;;;;;;130.32;72.93;;;;;;;;;;5071086;28;20850;-73
2021/12/01 14:25:54;;;;;;;44.95;26.75;;;;;;;;;;5067443;28;20059;-72
2021/12/01 14:28:20;;;;;;;60.50;36.63;;;;;;;;;;5069693;28;20044;-72
2021/12/01 14:30:49;;;;;;;58.95;34.00;;;;;;;;;;5070029;28;20031;-72
2021/12/01 14:33:16;;;;;;;61.50;38.42;;;;;;;;;;5070371;28;20067;-72
2021/12/01 14:35:43;;;;;;;40.13;24.38;;;;;;;;;;5070206;28;20541;-73
2021/12/01 14:39:42;;;;;;;32.78;23.65;;;;;;;;;;5111016;27;20462;-72
2021/12/01 14:42:09;;;;;;;32.60;22.00;;;;;;;;;;5110648;28;20039;-72
2021/12/01 14:44:36;;;;;;;40.80;22.63;;;;;;;;;;5111149;28;20016;-72
2021/12/01 14:47:04;;;;;;;52.28;32.25;;;;;;;;;;5105430;28;20376;-72
2021/12/01 14:49:48;;;;;;;65.00;36.03;;;;;;;;;;5106992;28;20029;-72
2021/12/01 14:54:19;;;;;;;66.20;41.10;;;;;;;;;;5111259;27;20807;-71
2021/12/01 14:56:56;;;;;;;200.68;99.68;;;;;;;;;;5110841;27;20452;-72
2021/12/01 14:59:22;;;;;;;197.77;101.28;;;;;;;;;;5110842;28;20069;-72
2021/12/01 15:04:04;;;;;;;149.77;78.30;;;;;;;;;;5110747;27;20413;-72
2021/12/01 15:06:31;;;;;;;87.18;51.05;;;;;;;;;;5111017;28;20030;-71
2021/12/01 15:09:50;;;;;;;94.15;57.30;;;;;;;;;;5104486;27;20406;-72
2021/12/01 15:13:49;;;;;;;79.18;49.50;;;;;;;;;;5104680;27;20406;-72
2021/12/01 15:16:26;;;;;;;87.60;49.95;;;;;;;;;;5098235;28;20729;-72
2021/12/01 15:18:58;;;;;;;53.97;32.00;;;;;;;;;;5090070;28;20021;-72
2021/12/01 15:21:25;;;;;;;52.90;32.33;;;;;;;;;;5090468;28;20016;-72
2021/12/01 15:23:51;;;;;;;50.03;33.42;;;;;;;;;;5090541;28;20024;-70
2021/12/01 15:26:23;;;;;;;59.80;40.35;;;;;;;;;;5089957;28;20024;-71
2021/12/01 15:28:50;;;;;;;54.47;36.38;;;;;;;;;;5090323;28;20480;-71
2021/12/01 15:31:18;;;;;;;40.15;27.58;;;;;;;;;;5089987;28;20039;-72
2021/12/01 15:33:45;;;;;;;83.07;51.05;;;;;;;;;;5090488;28;20032;-72
2021/12/01 15:36:12;;;;;;;56.72;35.25;;;;;;;;;;5090290;28;20016;-71
2021/12/01 15:38:38;;;;;;;61.58;40.28;;;;;;;;;;5089758;28;20081;-71